sensor_id;sensor_type;location;lat;lon;timestamp;pressure;altitude;pressure_sealevel;temperature;humidity
65384;BME280;51986;52.788;41.368;2023-08-06T00:01:49;99638.44;;;23.86;54.93
65384;BME280;51986;52.788;41.368;2023-08-06T00:04:16;99593.72;;;23.74;54.99
65384;BME280;51986;52.788;41.368;2023-08-06T00:06:43;99595.97;;;23.75;54.84
65384;BME280;51986;52.788;41.368;2023-08-06T00:09:10;99615.06;;;23.77;54.95
65384;BME280;51986;52.788;41.368;2023-08-06T00:11:37;99583.19;;;23.70;54.83
65384;BME280;51986;52.788;41.368;2023-08-06T00:14:04;99585.94;;;23.76;54.72
65384;BME280;51986;52.788;41.368;2023-08-06T00:16:31;99625.91;;;23.83;54.80
65384;BME280;51986;52.788;41.368;2023-08-06T00:18:58;99598.22;;;23.82;54.58
65384;BME280;51986;52.788;41.368;2023-08-06T00:21:26;99622.81;;;23.90;54.47
65384;BME280;51986;52.788;41.368;2023-08-06T00:23:53;99602.41;;;23.83;54.72
65384;BME280;51986;52.788;41.368;2023-08-06T00:26:20;99609.69;;;23.77;55.11
65384;BME280;51986;52.788;41.368;2023-08-06T00:28:47;99615.50;;;23.70;55.24
65384;BME280;51986;52.788;41.368;2023-08-06T00:31:14;99619.13;;;23.67;55.75
65384;BME280;51986;52.788;41.368;2023-08-06T00:33:41;99601.03;;;23.47;55.75
65384;BME280;51986;52.788;41.368;2023-08-06T00:36:08;99617.81;;;23.57;55.61
65384;BME280;51986;52.788;41.368;2023-08-06T00:38:35;99607.94;;;23.54;55.59
65384;BME280;51986;52.788;41.368;2023-08-06T00:41:02;99598.88;;;23.51;55.77
65384;BME280;51986;52.788;41.368;2023-08-06T00:43:30;99601.28;;;23.49;56.16
65384;BME280;51986;52.788;41.368;2023-08-06T00:45:57;99602.09;;;23.35;56.30
65384;BME280;51986;52.788;41.368;2023-08-06T00:48:24;99592.59;;;23.40;56.15
65384;BME280;51986;52.788;41.368;2023-08-06T00:50:52;99580.50;;;23.29;56.38
65384;BME280;51986;52.788;41.368;2023-08-06T00:53:20;99598.00;;;23.19;56.71
65384;BME280;51986;52.788;41.368;2023-08-06T00:55:47;99586.94;;;23.17;56.42
65384;BME280;51986;52.788;41.368;2023-08-06T00:58:16;99612.06;;;23.09;56.30
65384;BME280;51986;52.788;41.368;2023-08-06T01:00:44;99598.53;;;23.03;56.94
65384;BME280;51986;52.788;41.368;2023-08-06T01:03:11;99595.19;;;23.08;56.75
65384;BME280;51986;52.788;41.368;2023-08-06T01:05:39;99503.75;;;22.38;57.13
65384;BME280;51986;52.788;41.368;2023-08-06T01:08:12;99619.59;;;23.04;57.15
65384;BME280;51986;52.788;41.368;2023-08-06T01:16:09;99587.97;;;22.99;57.30
65384;BME280;51986;52.788;41.368;2023-08-06T01:18:38;99596.72;;;22.79;57.75
65384;BME280;51986;52.788;41.368;2023-08-06T01:21:05;99610.69;;;22.83;57.65
65384;BME280;51986;52.788;41.368;2023-08-06T01:23:32;99617.47;;;22.79;58.09
65384;BME280;51986;52.788;41.368;2023-08-06T01:26:39;99620.44;;;22.96;57.50
65384;BME280;51986;52.788;41.368;2023-08-06T01:29:19;99611.88;;;22.62;58.04
65384;BME280;51986;52.788;41.368;2023-08-06T01:31:51;99632.16;;;22.63;58.20
65384;BME280;51986;52.788;41.368;2023-08-06T01:34:30;99614.41;;;22.51;58.75
65384;BME280;51986;52.788;41.368;2023-08-06T01:36:57;99629.97;;;22.47;58.79
65384;BME280;51986;52.788;41.368;2023-08-06T01:39:26;99651.09;;;22.54;58.53
65384;BME280;51986;52.788;41.368;2023-08-06T01:41:54;99612.00;;;22.23;58.92
65384;BME280;51986;52.788;41.368;2023-08-06T01:44:21;99628.13;;;22.23;59.19
65384;BME280;51986;52.788;41.368;2023-08-06T01:46:49;99651.66;;;22.14;59.78
65384;BME280;51986;52.788;41.368;2023-08-06T01:49:16;99639.91;;;22.02;60.38
65384;BME280;51986;52.788;41.368;2023-08-06T01:51:43;99620.00;;;21.94;61.06
65384;BME280;51986;52.788;41.368;2023-08-06T01:54:10;99643.13;;;21.76;60.78
65384;BME280;51986;52.788;41.368;2023-08-06T01:56:37;99640.38;;;21.86;60.79
65384;BME280;51986;52.788;41.368;2023-08-06T01:59:04;99620.34;;;21.72;60.71
65384;BME280;51986;52.788;41.368;2023-08-06T02:01:31;99640.25;;;21.80;60.96
65384;BME280;51986;52.788;41.368;2023-08-06T02:03:58;99641.56;;;21.85;60.58
65384;BME280;51986;52.788;41.368;2023-08-06T02:06:25;99633.44;;;21.94;61.14
65384;BME280;51986;52.788;41.368;2023-08-06T02:08:52;99628.31;;;21.81;61.18
65384;BME280;51986;52.788;41.368;2023-08-06T02:11:19;99687.19;;;22.09;60.35
65384;BME280;51986;52.788;41.368;2023-08-06T02:13:46;99640.13;;;21.98;60.31
65384;BME280;51986;52.788;41.368;2023-08-06T02:16:18;99646.72;;;22.12;60.54
65384;BME280;51986;52.788;41.368;2023-08-06T02:18:45;99623.88;;;22.17;60.41
65384;BME280;51986;52.788;41.368;2023-08-06T02:21:12;99661.75;;;22.19;59.88
65384;BME280;51986;52.788;41.368;2023-08-06T02:23:39;99609.28;;;21.94;59.72
65384;BME280;51986;52.788;41.368;2023-08-06T02:26:06;99664.25;;;22.37;59.51
65384;BME280;51986;52.788;41.368;2023-08-06T02:28:33;99668.34;;;22.47;59.17
65384;BME280;51986;52.788;41.368;2023-08-06T02:31:00;99668.41;;;22.53;58.85
65384;BME280;51986;52.788;41.368;2023-08-06T02:33:27;99654.25;;;22.52;59.14
65384;BME280;51986;52.788;41.368;2023-08-06T02:36:02;99643.56;;;22.58;59.12
65384;BME280;51986;52.788;41.368;2023-08-06T02:38:30;99640.44;;;22.45;59.04
65384;BME280;51986;52.788;41.368;2023-08-06T02:40:57;99646.00;;;22.56;59.03
65384;BME280;51986;52.788;41.368;2023-08-06T02:43:24;99647.09;;;22.64;58.74
65384;BME280;51986;52.788;41.368;2023-08-06T02:45:51;99645.16;;;22.65;58.34
65384;BME280;51986;52.788;41.368;2023-08-06T02:48:19;99649.22;;;22.90;57.80
65384;BME280;51986;52.788;41.368;2023-08-06T02:50:46;99644.38;;;22.79;57.88
65384;BME280;51986;52.788;41.368;2023-08-06T02:53:13;99660.50;;;23.09;57.17
65384;BME280;51986;52.788;41.368;2023-08-06T02:55:46;99637.75;;;23.10;57.36
65384;BME280;51986;52.788;41.368;2023-08-06T02:58:16;99643.34;;;23.26;57.01
65384;BME280;51986;52.788;41.368;2023-08-06T03:01:06;99648.47;;;23.45;56.33
65384;BME280;51986;52.788;41.368;2023-08-06T03:03:43;99683.81;;;23.32;56.20
65384;BME280;51986;52.788;41.368;2023-08-06T03:06:17;99669.19;;;24.00;54.46
65384;BME280;51986;52.788;41.368;2023-08-06T03:08:48;99647.59;;;25.86;49.75
65384;BME280;51986;52.788;41.368;2023-08-06T03:11:15;99651.75;;;27.16;46.57
65384;BME280;51986;52.788;41.368;2023-08-06T03:13:42;99685.75;;;28.22;43.77
65384;BME280;51986;52.788;41.368;2023-08-06T03:16:10;99682.47;;;28.65;42.12
65384;BME280;51986;52.788;41.368;2023-08-06T03:18:38;99663.44;;;29.38;40.74
65384;BME280;51986;52.788;41.368;2023-08-06T03:21:07;99673.38;;;30.57;38.15
65384;BME280;51986;52.788;41.368;2023-08-06T03:23:34;99647.03;;;31.18;37.06
65384;BME280;51986;52.788;41.368;2023-08-06T03:26:03;99664.34;;;31.89;36.31
65384;BME280;51986;52.788;41.368;2023-08-06T03:28:32;99646.28;;;32.20;34.78
65384;BME280;51986;52.788;41.368;2023-08-06T03:31:01;99640.81;;;32.98;33.36
65384;BME280;51986;52.788;41.368;2023-08-06T03:33:34;99650.53;;;33.58;32.28
65384;BME280;51986;52.788;41.368;2023-08-06T03:36:04;99648.72;;;33.61;32.53
65384;BME280;51986;52.788;41.368;2023-08-06T03:38:33;99642.16;;;33.64;32.49
65384;BME280;51986;52.788;41.368;2023-08-06T03:41:03;99640.72;;;33.63;32.71
65384;BME280;51986;52.788;41.368;2023-08-06T03:43:30;99638.88;;;34.80;30.47
65384;BME280;51986;52.788;41.368;2023-08-06T03:45:58;99649.50;;;34.61;30.68
65384;BME280;51986;52.788;41.368;2023-08-06T03:48:25;99631.00;;;34.84;30.59
65384;BME280;51986;52.788;41.368;2023-08-06T03:50:52;99641.84;;;35.22;29.50
65384;BME280;51986;52.788;41.368;2023-08-06T03:53:19;99658.16;;;35.13;29.68
65384;BME280;51986;52.788;41.368;2023-08-06T03:55:47;99633.09;;;35.57;29.52
65384;BME280;51986;52.788;41.368;2023-08-06T03:58:14;99645.56;;;35.83;29.06
65384;BME280;51986;52.788;41.368;2023-08-06T04:00:41;99608.13;;;35.70;28.74
65384;BME280;51986;52.788;41.368;2023-08-06T04:03:08;99615.88;;;35.89;28.12
65384;BME280;51986;52.788;41.368;2023-08-06T04:05:36;99642.00;;;37.09;26.61
65384;BME280;51986;52.788;41.368;2023-08-06T04:08:03;99633.00;;;37.09;25.83
65384;BME280;51986;52.788;41.368;2023-08-06T04:10:30;99614.72;;;37.48;25.86
65384;BME280;51986;52.788;41.368;2023-08-06T04:12:57;99617.13;;;36.90;26.38
65384;BME280;51986;52.788;41.368;2023-08-06T04:15:24;99620.47;;;37.42;25.23
65384;BME280;51986;52.788;41.368;2023-08-06T04:17:51;99611.50;;;37.42;25.41
65384;BME280;51986;52.788;41.368;2023-08-06T04:20:18;99630.31;;;37.18;25.77
65384;BME280;51986;52.788;41.368;2023-08-06T04:22:45;99623.34;;;36.90;25.85
65384;BME280;51986;52.788;41.368;2023-08-06T04:25:12;99630.34;;;37.45;24.72
65384;BME280;51986;52.788;41.368;2023-08-06T04:27:39;99629.66;;;36.66;25.94
65384;BME280;51986;52.788;41.368;2023-08-06T04:30:07;99597.66;;;36.61;26.42
65384;BME280;51986;52.788;41.368;2023-08-06T04:32:36;99613.00;;;36.81;25.83
65384;BME280;51986;52.788;41.368;2023-08-06T04:35:04;99610.06;;;36.79;26.59
65384;BME280;51986;52.788;41.368;2023-08-06T04:37:32;99625.25;;;36.28;27.03
65384;BME280;51986;52.788;41.368;2023-08-06T04:39:59;99620.75;;;36.75;26.66
65384;BME280;51986;52.788;41.368;2023-08-06T04:42:26;99603.63;;;36.49;26.70
65384;BME280;51986;52.788;41.368;2023-08-06T04:44:53;99634.50;;;36.58;27.12
65384;BME280;51986;52.788;41.368;2023-08-06T04:47:20;99616.22;;;36.53;27.43
65384;BME280;51986;52.788;41.368;2023-08-06T04:49:47;99624.06;;;36.56;27.41
65384;BME280;51986;52.788;41.368;2023-08-06T04:52:14;99619.44;;;36.59;27.56
65384;BME280;51986;52.788;41.368;2023-08-06T04:54:43;99605.81;;;36.51;27.19
65384;BME280;51986;52.788;41.368;2023-08-06T04:57:10;99627.94;;;36.11;28.21
65384;BME280;51986;52.788;41.368;2023-08-06T04:59:37;99606.16;;;35.63;29.19
65384;BME280;51986;52.788;41.368;2023-08-06T05:02:04;99590.97;;;35.62;28.61
65384;BME280;51986;52.788;41.368;2023-08-06T05:04:31;99617.09;;;35.95;28.73
65384;BME280;51986;52.788;41.368;2023-08-06T05:06:58;99611.97;;;35.67;29.19
65384;BME280;51986;52.788;41.368;2023-08-06T05:09:25;99609.81;;;34.92;29.94
65384;BME280;51986;52.788;41.368;2023-08-06T05:11:52;99603.06;;;34.93;31.16
65384;BME280;51986;52.788;41.368;2023-08-06T05:14:19;99604.13;;;34.90;31.07
65384;BME280;51986;52.788;41.368;2023-08-06T05:16:46;99618.56;;;34.98;30.99
65384;BME280;51986;52.788;41.368;2023-08-06T05:19:13;99599.13;;;34.33;31.52
65384;BME280;51986;52.788;41.368;2023-08-06T05:21:40;99610.25;;;34.43;32.08
65384;BME280;51986;52.788;41.368;2023-08-06T05:24:07;99587.09;;;33.90;32.93
65384;BME280;51986;52.788;41.368;2023-08-06T05:26:35;99597.34;;;34.20;32.94
65384;BME280;51986;52.788;41.368;2023-08-06T05:29:02;99601.13;;;33.64;32.20
65384;BME280;51986;52.788;41.368;2023-08-06T05:31:30;99593.78;;;33.43;31.74
65384;BME280;51986;52.788;41.368;2023-08-06T05:33:57;99585.72;;;33.22;33.05
65384;BME280;51986;52.788;41.368;2023-08-06T05:36:24;99587.03;;;33.29;33.28
65384;BME280;51986;52.788;41.368;2023-08-06T05:38:53;99596.81;;;33.17;32.68
65384;BME280;51986;52.788;41.368;2023-08-06T05:41:20;99614.66;;;33.18;33.43
65384;BME280;51986;52.788;41.368;2023-08-06T05:43:47;99605.75;;;32.81;32.84
65384;BME280;51986;52.788;41.368;2023-08-06T05:46:14;99611.44;;;32.55;33.62
65384;BME280;51986;52.788;41.368;2023-08-06T05:48:43;99603.94;;;32.84;33.20
65384;BME280;51986;52.788;41.368;2023-08-06T05:51:10;99594.38;;;32.62;33.66
65384;BME280;51986;52.788;41.368;2023-08-06T05:53:37;99586.50;;;32.30;34.57
65384;BME280;51986;52.788;41.368;2023-08-06T05:56:04;99600.16;;;32.30;34.07
65384;BME280;51986;52.788;41.368;2023-08-06T05:58:32;99609.06;;;32.30;34.31
65384;BME280;51986;52.788;41.368;2023-08-06T06:00:59;99615.47;;;32.12;34.38
65384;BME280;51986;52.788;41.368;2023-08-06T06:03:26;99582.25;;;32.21;33.79
65384;BME280;51986;52.788;41.368;2023-08-06T06:05:53;99564.78;;;31.96;34.62
65384;BME280;51986;52.788;41.368;2023-08-06T06:08:20;99592.31;;;32.55;34.64
65384;BME280;51986;52.788;41.368;2023-08-06T06:10:47;99603.50;;;32.43;34.66
65384;BME280;51986;52.788;41.368;2023-08-06T06:13:14;99598.22;;;32.66;33.62
65384;BME280;51986;52.788;41.368;2023-08-06T06:15:41;99615.81;;;32.58;34.22
65384;BME280;51986;52.788;41.368;2023-08-06T06:18:08;99582.34;;;32.36;33.97
65384;BME280;51986;52.788;41.368;2023-08-06T06:20:35;99596.63;;;32.79;32.28
65384;BME280;51986;52.788;41.368;2023-08-06T06:23:02;99594.09;;;32.24;33.57
65384;BME280;51986;52.788;41.368;2023-08-06T06:25:29;99599.41;;;32.29;33.49
65384;BME280;51986;52.788;41.368;2023-08-06T06:27:56;99572.22;;;32.73;32.63
65384;BME280;51986;52.788;41.368;2023-08-06T06:30:24;99580.56;;;32.67;32.55
65384;BME280;51986;52.788;41.368;2023-08-06T06:32:51;99590.81;;;32.82;31.98
65384;BME280;51986;52.788;41.368;2023-08-06T06:35:18;99584.56;;;32.66;31.23
65384;BME280;51986;52.788;41.368;2023-08-06T06:37:45;99590.28;;;32.84;32.19
65384;BME280;51986;52.788;41.368;2023-08-06T06:40:12;99601.63;;;32.59;32.29
65384;BME280;51986;52.788;41.368;2023-08-06T06:42:39;99577.91;;;32.26;31.68
65384;BME280;51986;52.788;41.368;2023-08-06T06:45:08;99566.97;;;32.47;31.61
65384;BME280;51986;52.788;41.368;2023-08-06T06:47:36;99576.16;;;32.64;31.56
65384;BME280;51986;52.788;41.368;2023-08-06T06:50:03;99590.97;;;32.77;32.08
65384;BME280;51986;52.788;41.368;2023-08-06T06:52:30;99599.38;;;33.15;32.33
65384;BME280;51986;52.788;41.368;2023-08-06T06:54:57;99584.13;;;32.91;31.54
65384;BME280;51986;52.788;41.368;2023-08-06T06:57:24;99552.97;;;32.50;31.79
65384;BME280;51986;52.788;41.368;2023-08-06T06:59:51;99583.06;;;32.58;32.21
65384;BME280;51986;52.788;41.368;2023-08-06T07:02:18;99587.16;;;32.80;31.97
65384;BME280;51986;52.788;41.368;2023-08-06T07:04:45;99574.31;;;32.59;31.25
65384;BME280;51986;52.788;41.368;2023-08-06T07:07:12;99594.06;;;32.73;32.06
65384;BME280;51986;52.788;41.368;2023-08-06T07:09:40;99585.94;;;32.88;31.08
65384;BME280;51986;52.788;41.368;2023-08-06T07:12:07;99573.66;;;32.74;30.71
65384;BME280;51986;52.788;41.368;2023-08-06T07:14:34;99583.19;;;32.81;30.87
65384;BME280;51986;52.788;41.368;2023-08-06T07:17:01;99566.41;;;32.77;30.37
65384;BME280;51986;52.788;41.368;2023-08-06T07:19:28;99562.19;;;32.76;31.24
65384;BME280;51986;52.788;41.368;2023-08-06T07:21:55;99551.66;;;32.80;30.16
65384;BME280;51986;52.788;41.368;2023-08-06T07:24:23;99558.06;;;32.90;30.17
65384;BME280;51986;52.788;41.368;2023-08-06T07:26:50;99563.72;;;32.48;30.26
65384;BME280;51986;52.788;41.368;2023-08-06T07:29:17;99555.75;;;32.58;31.08
65384;BME280;51986;52.788;41.368;2023-08-06T07:31:44;99547.44;;;32.71;31.05
65384;BME280;51986;52.788;41.368;2023-08-06T07:34:11;99540.00;;;32.43;30.76
65384;BME280;51986;52.788;41.368;2023-08-06T07:36:38;99578.94;;;32.43;31.39
65384;BME280;51986;52.788;41.368;2023-08-06T07:39:05;99550.34;;;32.73;30.80
65384;BME280;51986;52.788;41.368;2023-08-06T07:41:32;99576.13;;;32.57;31.05
65384;BME280;51986;52.788;41.368;2023-08-06T07:43:59;99552.28;;;32.57;30.28
65384;BME280;51986;52.788;41.368;2023-08-06T07:46:26;99550.78;;;32.49;31.31
65384;BME280;51986;52.788;41.368;2023-08-06T07:48:53;99563.06;;;32.63;30.78
65384;BME280;51986;52.788;41.368;2023-08-06T07:51:20;99546.09;;;32.57;30.46
65384;BME280;51986;52.788;41.368;2023-08-06T07:53:47;99566.56;;;32.42;30.71
65384;BME280;51986;52.788;41.368;2023-08-06T07:56:14;99560.66;;;32.59;31.58
65384;BME280;51986;52.788;41.368;2023-08-06T07:58:41;99540.81;;;32.59;30.77
65384;BME280;51986;52.788;41.368;2023-08-06T08:01:08;99551.63;;;32.43;31.51
65384;BME280;51986;52.788;41.368;2023-08-06T08:03:36;99549.34;;;32.48;29.87
65384;BME280;51986;52.788;41.368;2023-08-06T08:06:03;99548.97;;;32.87;29.66
65384;BME280;51986;52.788;41.368;2023-08-06T08:08:30;99544.63;;;33.00;29.80
65384;BME280;51986;52.788;41.368;2023-08-06T08:10:57;99549.69;;;32.88;28.89
65384;BME280;51986;52.788;41.368;2023-08-06T08:13:24;99568.25;;;32.82;29.88
65384;BME280;51986;52.788;41.368;2023-08-06T08:15:57;99536.31;;;33.13;29.74
65384;BME280;51986;52.788;41.368;2023-08-06T08:18:24;99526.06;;;32.98;29.63
65384;BME280;51986;52.788;41.368;2023-08-06T08:20:51;99536.88;;;33.19;28.45
65384;BME280;51986;52.788;41.368;2023-08-06T08:23:18;99531.06;;;32.79;29.44
65384;BME280;51986;52.788;41.368;2023-08-06T08:25:45;99526.84;;;32.70;30.35
65384;BME280;51986;52.788;41.368;2023-08-06T08:28:12;99524.66;;;32.68;29.56
65384;BME280;51986;52.788;41.368;2023-08-06T08:30:41;99557.31;;;32.82;30.80
65384;BME280;51986;52.788;41.368;2023-08-06T08:33:08;99537.59;;;32.68;30.18
65384;BME280;51986;52.788;41.368;2023-08-06T08:35:36;99532.38;;;32.85;30.04
65384;BME280;51986;52.788;41.368;2023-08-06T08:38:03;99529.94;;;33.18;27.75
65384;BME280;51986;52.788;41.368;2023-08-06T08:40:32;99540.16;;;33.25;27.36
65384;BME280;51986;52.788;41.368;2023-08-06T08:43:00;99532.81;;;32.97;28.65
65384;BME280;51986;52.788;41.368;2023-08-06T08:45:29;99546.84;;;33.01;28.49
65384;BME280;51986;52.788;41.368;2023-08-06T08:47:57;99524.25;;;33.08;28.22
65384;BME280;51986;52.788;41.368;2023-08-06T08:50:24;99520.03;;;33.00;28.64
65384;BME280;51986;52.788;41.368;2023-08-06T08:52:51;99537.56;;;33.04;29.00
65384;BME280;51986;52.788;41.368;2023-08-06T08:55:20;99526.47;;;33.17;26.91
65384;BME280;51986;52.788;41.368;2023-08-06T08:57:47;99529.94;;;33.10;27.92
65384;BME280;51986;52.788;41.368;2023-08-06T09:00:15;99516.78;;;33.09;27.70
65384;BME280;51986;52.788;41.368;2023-08-06T09:02:42;99530.19;;;32.84;28.22
65384;BME280;51986;52.788;41.368;2023-08-06T09:05:11;99515.16;;;33.06;28.43
65384;BME280;51986;52.788;41.368;2023-08-06T09:07:42;99525.94;;;32.75;28.92
65384;BME280;51986;52.788;41.368;2023-08-06T09:10:11;99527.94;;;32.67;29.04
65384;BME280;51986;52.788;41.368;2023-08-06T09:12:38;99524.53;;;32.89;28.27
65384;BME280;51986;52.788;41.368;2023-08-06T09:15:05;99501.88;;;33.10;27.29
65384;BME280;51986;52.788;41.368;2023-08-06T09:17:32;99508.66;;;33.24;28.14
65384;BME280;51986;52.788;41.368;2023-08-06T09:20:09;99499.66;;;33.01;28.06
65384;BME280;51986;52.788;41.368;2023-08-06T09:22:36;99497.91;;;32.67;28.25
65384;BME280;51986;52.788;41.368;2023-08-06T09:25:04;99479.41;;;32.44;28.45
65384;BME280;51986;52.788;41.368;2023-08-06T09:27:31;99499.38;;;32.76;27.55
65384;BME280;51986;52.788;41.368;2023-08-06T09:29:58;99495.41;;;32.84;27.86
65384;BME280;51986;52.788;41.368;2023-08-06T09:32:25;99486.38;;;33.12;27.92
65384;BME280;51986;52.788;41.368;2023-08-06T09:34:56;99483.09;;;33.14;27.89
65384;BME280;51986;52.788;41.368;2023-08-06T09:37:25;99494.16;;;32.85;27.87
65384;BME280;51986;52.788;41.368;2023-08-06T09:39:52;99479.22;;;32.94;27.37
65384;BME280;51986;52.788;41.368;2023-08-06T09:42:19;99483.09;;;33.06;27.75
65384;BME280;51986;52.788;41.368;2023-08-06T09:44:46;99485.88;;;33.29;26.96
65384;BME280;51986;52.788;41.368;2023-08-06T09:47:15;99480.16;;;32.97;27.29
65384;BME280;51986;52.788;41.368;2023-08-06T09:49:42;99481.63;;;33.13;26.74
65384;BME280;51986;52.788;41.368;2023-08-06T09:52:11;99481.06;;;32.99;27.32
65384;BME280;51986;52.788;41.368;2023-08-06T09:54:39;99463.50;;;32.35;28.43
65384;BME280;51986;52.788;41.368;2023-08-06T09:57:06;99483.97;;;32.50;27.88
65384;BME280;51986;52.788;41.368;2023-08-06T09:59:34;99452.34;;;32.54;27.98
65384;BME280;51986;52.788;41.368;2023-08-06T10:02:02;99495.44;;;32.48;28.90
65384;BME280;51986;52.788;41.368;2023-08-06T10:04:34;99456.47;;;32.99;26.56
65384;BME280;51986;52.788;41.368;2023-08-06T10:07:08;99454.38;;;32.61;27.16
65384;BME280;51986;52.788;41.368;2023-08-06T10:09:35;99457.78;;;32.54;27.83
65384;BME280;51986;52.788;41.368;2023-08-06T10:12:02;99484.28;;;32.38;27.14
65384;BME280;51986;52.788;41.368;2023-08-06T10:14:35;99467.69;;;32.73;25.58
65384;BME280;51986;52.788;41.368;2023-08-06T10:17:04;99457.78;;;33.06;25.81
65384;BME280;51986;52.788;41.368;2023-08-06T10:19:32;99453.44;;;33.33;26.13
65384;BME280;51986;52.788;41.368;2023-08-06T10:24:50;99444.22;;;32.77;27.12
65384;BME280;51986;52.788;41.368;2023-08-06T10:27:22;99456.59;;;32.34;27.62
65384;BME280;51986;52.788;41.368;2023-08-06T10:29:54;99456.75;;;32.73;26.59
65384;BME280;51986;52.788;41.368;2023-08-06T10:32:48;99453.88;;;32.93;26.35
65384;BME280;51986;52.788;41.368;2023-08-06T10:35:40;99424.25;;;33.05;27.03
65384;BME280;51986;52.788;41.368;2023-08-06T10:38:13;99418.97;;;33.22;28.29
65384;BME280;51986;52.788;41.368;2023-08-06T10:40:48;99437.91;;;33.05;28.67
65384;BME280;51986;52.788;41.368;2023-08-06T10:45:57;99429.91;;;33.38;26.70
65384;BME280;51986;52.788;41.368;2023-08-06T10:51:00;99430.97;;;33.04;26.10
65384;BME280;51986;52.788;41.368;2023-08-06T10:53:27;99417.25;;;32.74;26.50
65384;BME280;51986;52.788;41.368;2023-08-06T10:55:59;99416.38;;;32.86;25.75
65384;BME280;51986;52.788;41.368;2023-08-06T10:58:26;99412.03;;;32.99;25.77
65384;BME280;51986;52.788;41.368;2023-08-06T11:00:57;99404.94;;;33.41;25.62
65384;BME280;51986;52.788;41.368;2023-08-06T11:03:27;99399.28;;;33.39;25.91
65384;BME280;51986;52.788;41.368;2023-08-06T11:05:54;99401.09;;;33.14;25.48
65384;BME280;51986;52.788;41.368;2023-08-06T11:08:28;99392.19;;;32.98;25.92
65384;BME280;51986;52.788;41.368;2023-08-06T11:10:55;99404.22;;;33.18;26.69
65384;BME280;51986;52.788;41.368;2023-08-06T11:13:34;99401.13;;;33.06;26.90
65384;BME280;51986;52.788;41.368;2023-08-06T11:16:01;99412.44;;;33.33;27.17
65384;BME280;51986;52.788;41.368;2023-08-06T11:18:28;99415.34;;;33.20;26.88
65384;BME280;51986;52.788;41.368;2023-08-06T11:20:55;99397.13;;;33.45;27.50
65384;BME280;51986;52.788;41.368;2023-08-06T11:23:22;99398.38;;;33.14;28.84
65384;BME280;51986;52.788;41.368;2023-08-06T11:25:49;99379.44;;;33.24;28.28
65384;BME280;51986;52.788;41.368;2023-08-06T11:28:19;99395.56;;;32.68;28.36
65384;BME280;51986;52.788;41.368;2023-08-06T11:30:46;99390.47;;;32.57;27.72
65384;BME280;51986;52.788;41.368;2023-08-06T11:33:13;99381.38;;;32.85;28.21
65384;BME280;51986;52.788;41.368;2023-08-06T11:35:40;99399.59;;;32.90;27.94
65384;BME280;51986;52.788;41.368;2023-08-06T11:38:07;99379.06;;;32.97;28.46
65384;BME280;51986;52.788;41.368;2023-08-06T11:40:35;99345.31;;;32.63;28.24
65384;BME280;51986;52.788;41.368;2023-08-06T11:43:02;99357.50;;;32.55;28.83
65384;BME280;51986;52.788;41.368;2023-08-06T11:45:29;99374.88;;;33.03;28.24
65384;BME280;51986;52.788;41.368;2023-08-06T11:47:57;99349.75;;;33.20;26.84
65384;BME280;51986;52.788;41.368;2023-08-06T11:50:25;99347.91;;;33.07;28.13
65384;BME280;51986;52.788;41.368;2023-08-06T11:53:02;99363.91;;;32.80;27.51
65384;BME280;51986;52.788;41.368;2023-08-06T11:55:29;99329.31;;;32.90;27.94
65384;BME280;51986;52.788;41.368;2023-08-06T11:57:57;99342.09;;;32.95;26.80
65384;BME280;51986;52.788;41.368;2023-08-06T12:00:25;99374.31;;;32.82;27.91
65384;BME280;51986;52.788;41.368;2023-08-06T12:02:52;99357.00;;;32.94;27.93
65384;BME280;51986;52.788;41.368;2023-08-06T12:05:20;99351.16;;;32.67;28.10
65384;BME280;51986;52.788;41.368;2023-08-06T12:07:58;99340.03;;;32.58;27.75
65384;BME280;51986;52.788;41.368;2023-08-06T12:10:27;99321.28;;;32.54;28.16
65384;BME280;51986;52.788;41.368;2023-08-06T12:12:55;99350.22;;;32.57;28.77
65384;BME280;51986;52.788;41.368;2023-08-06T12:15:22;99343.53;;;32.81;28.28
65384;BME280;51986;52.788;41.368;2023-08-06T12:17:49;99328.38;;;32.57;28.37
65384;BME280;51986;52.788;41.368;2023-08-06T12:20:17;99345.66;;;32.60;27.96
65384;BME280;51986;52.788;41.368;2023-08-06T12:22:44;99342.22;;;32.59;28.13
65384;BME280;51986;52.788;41.368;2023-08-06T12:25:11;99314.88;;;32.52;27.72
65384;BME280;51986;52.788;41.368;2023-08-06T12:27:40;99346.97;;;32.74;28.12
65384;BME280;51986;52.788;41.368;2023-08-06T12:30:08;99346.06;;;32.79;28.57
65384;BME280;51986;52.788;41.368;2023-08-06T12:32:36;99328.19;;;32.55;28.19
65384;BME280;51986;52.788;41.368;2023-08-06T12:35:03;99349.31;;;32.55;27.90
65384;BME280;51986;52.788;41.368;2023-08-06T12:37:30;99345.66;;;32.52;27.32
65384;BME280;51986;52.788;41.368;2023-08-06T12:39:57;99330.13;;;32.39;27.76
65384;BME280;51986;52.788;41.368;2023-08-06T12:42:24;99340.69;;;32.35;27.78
65384;BME280;51986;52.788;41.368;2023-08-06T12:44:51;99351.72;;;32.22;28.42
65384;BME280;51986;52.788;41.368;2023-08-06T12:47:19;99338.81;;;32.15;28.10
65384;BME280;51986;52.788;41.368;2023-08-06T12:49:46;99312.78;;;32.14;28.05
65384;BME280;51986;52.788;41.368;2023-08-06T12:52:13;99318.66;;;32.33;28.37
65384;BME280;51986;52.788;41.368;2023-08-06T12:54:40;99332.16;;;32.47;28.45
65384;BME280;51986;52.788;41.368;2023-08-06T12:57:07;99322.91;;;32.50;27.74
65384;BME280;51986;52.788;41.368;2023-08-06T12:59:34;99330.06;;;32.09;28.79
65384;BME280;51986;52.788;41.368;2023-08-06T13:02:01;99310.97;;;32.16;28.98
65384;BME280;51986;52.788;41.368;2023-08-06T13:04:29;99303.69;;;32.11;28.79
65384;BME280;51986;52.788;41.368;2023-08-06T13:06:56;99295.84;;;32.00;29.38
65384;BME280;51986;52.788;41.368;2023-08-06T13:09:23;99296.59;;;32.16;28.66